Weather in selectable METAR weather stations Station search

1) Select the Continent / Group:

[Europe]  [Asia]  [Africa]  [North America]  [South America]  
[Central America and Caribbean]  [Oceania]  [Antarctica]  
2) Select the Weather station (City):


METAR = SABE 190300Z 11011KT CAVOK 15/11 Q1023 NOSIG

STATIONSABE
NAMEBuenos Aires/Newbery, C, AG
OBSERVED19.10.2021 00:00 (19.10.2021 03:00 UTC), 26 min ago
TEMPERATURE15.0°C ( 59°F)
WINDCHILL13.6 °C (56 °F)
WINDESE (110 degrees) at 13 MPH (11 knots; 5.7 m/s)
HUMIDITY77%
PRESSURE1023 hPa
Click here to search the weather station or to give the station identifier
(four-character ICAO Location Indicator) for weather data.